createdAt,value
2018-07-14T00:56:44.844Z,15.20
2018-07-14T00:59:13.881Z,15.20
2018-07-14T01:01:42.619Z,15.20
2018-07-14T01:04:11.084Z,15.20
2018-07-14T01:06:39.968Z,15.10
2018-07-14T01:09:09.206Z,15.10
2018-07-14T01:11:37.624Z,15.10
2018-07-14T01:14:06.768Z,15.00
2018-07-14T01:16:35.775Z,15.10
2018-07-14T01:19:04.360Z,15.00
2018-07-14T01:21:33.076Z,15.00
2018-07-14T01:24:01.485Z,14.90
2018-07-14T01:26:30.525Z,14.90
2018-07-14T01:28:59.028Z,14.90
2018-07-14T01:31:27.721Z,14.90
2018-07-14T01:33:56.683Z,14.90
2018-07-14T01:36:25.308Z,14.90
2018-07-14T01:38:53.688Z,14.90
2018-07-14T01:41:22.429Z,14.80
2018-07-14T01:43:50.957Z,14.80
2018-07-14T01:46:19.564Z,14.80
2018-07-14T01:48:48.098Z,14.80
2018-07-14T01:51:16.721Z,14.70
2018-07-14T01:53:45.569Z,14.70
2018-07-14T01:56:14.097Z,14.70
2018-07-14T02:01:12.221Z,14.60
2018-07-14T02:03:40.592Z,14.70
2018-07-14T02:06:09.364Z,14.70
2018-07-14T02:08:37.743Z,14.60
2018-07-14T02:11:06.280Z,14.60
2018-07-14T02:13:34.676Z,14.70
2018-07-14T02:16:03.720Z,14.60
2018-07-14T02:18:32.093Z,14.60
2018-07-14T02:21:00.773Z,14.50
2018-07-14T02:23:29.655Z,14.50
2018-07-14T02:25:58.162Z,14.50
2018-07-14T02:28:26.945Z,14.50
2018-07-14T02:30:55.565Z,14.40
2018-07-14T02:33:24.424Z,14.40
2018-07-14T02:35:53.159Z,14.40
2018-07-14T02:38:21.695Z,14.40
2018-07-14T02:40:50.116Z,14.30
2018-07-14T02:43:19.469Z,14.30
2018-07-14T02:45:48.735Z,14.30
2018-07-14T02:48:17.149Z,14.30
2018-07-14T02:50:45.775Z,14.20
2018-07-14T02:53:14.622Z,14.20
2018-07-14T02:55:43.249Z,14.20
2018-07-14T02:58:12.052Z,14.20
2018-07-14T03:00:40.621Z,14.20
2018-07-14T03:03:09.556Z,14.10
2018-07-14T03:05:38.243Z,14.10
2018-07-14T03:08:06.589Z,14.10
2018-07-14T03:10:34.993Z,14.00
2018-07-14T03:13:03.400Z,14.00
2018-07-14T03:15:32.455Z,13.90
2018-07-14T03:18:00.903Z,13.90
2018-07-14T03:20:29.579Z,13.90
2018-07-14T03:22:58.187Z,13.80
2018-07-14T03:25:26.759Z,13.80
2018-07-14T03:27:55.192Z,13.80
2018-07-14T03:30:24.417Z,13.80
2018-07-14T03:32:53.587Z,13.80
2018-07-14T03:35:22.703Z,13.70
2018-07-14T03:37:51.096Z,13.70
2018-07-14T03:40:19.541Z,13.70
2018-07-14T03:42:48.019Z,13.70
2018-07-14T03:45:16.579Z,13.70
2018-07-14T03:47:45.537Z,13.70
2018-07-14T03:50:13.972Z,13.70
2018-07-14T03:52:42.411Z,13.70
2018-07-14T03:55:10.809Z,13.80
2018-07-14T03:57:39.460Z,13.80
2018-07-14T04:00:08.824Z,13.80
2018-07-14T04:02:37.425Z,13.80
2018-07-14T04:05:06.220Z,13.80
2018-07-14T04:07:35.276Z,13.80
2018-07-14T04:10:03.815Z,13.90
2018-07-14T04:12:32.518Z,13.90
2018-07-14T04:15:01.949Z,13.90
2018-07-14T04:17:30.653Z,13.90
2018-07-14T04:19:59.084Z,14.00
2018-07-14T04:22:28.025Z,14.00
2018-07-14T04:24:56.616Z,14.10
2018-07-14T04:27:25.631Z,14.10
2018-07-14T04:29:54.485Z,14.20
2018-07-14T04:32:23.213Z,14.20
2018-07-14T04:34:51.690Z,14.30
2018-07-14T04:37:20.642Z,14.30
2018-07-14T04:39:50.087Z,14.40
2018-07-14T04:42:18.607Z,14.50
2018-07-14T04:44:47.109Z,14.60
2018-07-14T04:47:15.885Z,14.60
2018-07-14T04:49:45.392Z,14.70
2018-07-14T04:52:13.908Z,14.70
2018-07-14T04:54:42.400Z,14.80
2018-07-14T04:57:11.556Z,14.80
2018-07-14T04:59:39.954Z,14.90
2018-07-14T05:02:08.319Z,15.00
2018-07-14T05:04:37.032Z,15.00
2018-07-14T05:07:05.975Z,15.10
2018-07-14T05:09:34.388Z,15.20
2018-07-14T05:12:02.971Z,15.30
2018-07-14T05:14:31.879Z,15.40
2018-07-14T05:17:00.683Z,15.50
2018-07-14T05:19:29.260Z,15.60
2018-07-14T05:21:58.011Z,15.80
2018-07-14T05:24:27.158Z,15.90
2018-07-14T05:26:55.985Z,16.00
2018-07-14T05:29:24.381Z,16.20
2018-07-14T05:31:52.908Z,16.30
2018-07-14T05:34:22.134Z,16.50
2018-07-14T05:36:50.950Z,16.70
2018-07-14T05:39:20.086Z,16.80
2018-07-14T05:41:49.323Z,16.90
2018-07-14T05:44:17.957Z,17.10
2018-07-14T05:46:46.517Z,17.20
2018-07-14T05:49:15.477Z,17.40
2018-07-14T05:51:44.428Z,17.60
2018-07-14T05:54:15.993Z,17.80
2018-07-14T05:56:44.429Z,18.00
2018-07-14T05:59:12.807Z,18.70
2018-07-14T06:01:41.624Z,20.00
2018-07-14T06:04:10.092Z,21.70
2018-07-14T06:06:39.012Z,23.10
2018-07-14T06:09:08.213Z,24.50
2018-07-14T06:11:37.046Z,25.40
2018-07-14T06:14:05.820Z,25.70
2018-07-14T06:16:34.448Z,26.30
2018-07-14T06:19:02.932Z,26.30
2018-07-14T06:21:31.385Z,26.30
2018-07-14T06:24:03.118Z,26.50
2018-07-14T06:26:31.874Z,25.90
2018-07-14T06:29:00.526Z,25.80
2018-07-14T06:31:29.902Z,25.20
2018-07-14T06:33:58.557Z,24.80
2018-07-14T06:36:26.996Z,24.30
2018-07-14T06:38:55.889Z,23.70
2018-07-14T06:41:24.508Z,23.10
2018-07-14T06:43:53.718Z,22.50
2018-07-14T06:46:22.292Z,22.00
2018-07-14T06:48:50.731Z,21.90
2018-07-14T06:51:19.449Z,21.60
2018-07-14T06:53:47.910Z,21.50
2018-07-14T06:56:16.521Z,21.30
2018-07-14T07:01:13.418Z,21.60
2018-07-14T07:03:41.849Z,22.30
2018-07-14T07:06:10.982Z,23.20
2018-07-14T07:08:39.439Z,24.20
2018-07-14T07:11:08.130Z,25.50
2018-07-14T07:13:36.826Z,27.00
2018-07-14T07:16:05.477Z,27.90
2018-07-14T07:18:34.207Z,28.90
2018-07-14T07:21:02.603Z,29.60
2018-07-14T07:23:32.181Z,30.60
2018-07-14T07:26:01.709Z,30.10
2018-07-14T07:28:30.754Z,29.80
2018-07-14T07:30:59.803Z,29.20
2018-07-14T07:33:28.567Z,29.10
2018-07-14T07:35:57.994Z,30.20
2018-07-14T07:38:26.425Z,30.90
2018-07-14T07:40:55.345Z,31.00
2018-07-14T07:43:24.056Z,31.60
2018-07-14T07:45:52.559Z,32.40
2018-07-14T07:48:20.994Z,32.90
2018-07-14T07:50:49.762Z,33.30
2018-07-14T07:53:18.499Z,33.70
2018-07-14T07:55:47.065Z,33.60
2018-07-14T07:58:15.821Z,33.70
2018-07-14T08:00:44.274Z,33.80
2018-07-14T08:03:12.780Z,34.30
2018-07-14T08:05:41.292Z,33.80
2018-07-14T08:08:09.785Z,33.80
2018-07-14T08:10:38.289Z,34.10
2018-07-14T08:13:07.368Z,33.30
2018-07-14T08:15:36.443Z,32.50
2018-07-14T08:18:05.129Z,31.60
2018-07-14T08:20:33.507Z,32.00
2018-07-14T08:23:01.992Z,32.10
2018-07-14T08:25:30.486Z,32.40
2018-07-14T08:27:59.107Z,31.10
2018-07-14T08:30:28.044Z,30.90
2018-07-14T08:32:56.631Z,31.00
2018-07-14T08:35:25.440Z,31.10
2018-07-14T08:37:54.423Z,31.20
2018-07-14T08:40:23.536Z,31.30
2018-07-14T08:42:52.173Z,31.90
2018-07-14T08:45:20.801Z,32.10
2018-07-14T08:47:49.312Z,31.80
2018-07-14T08:50:17.939Z,32.70
2018-07-14T08:52:46.716Z,33.50
2018-07-14T08:55:15.284Z,34.50
2018-07-14T08:57:44.729Z,34.80
2018-07-14T09:00:13.171Z,34.80
2018-07-14T09:02:41.720Z,34.70
2018-07-14T09:05:10.275Z,35.60
2018-07-14T09:07:38.910Z,35.40
2018-07-14T09:10:07.600Z,35.10
2018-07-14T09:12:36.018Z,35.10
2018-07-14T09:15:04.609Z,35.20
2018-07-14T09:17:33.349Z,35.80
2018-07-14T09:20:02.059Z,36.00
2018-07-14T09:22:30.932Z,35.50
2018-07-14T09:24:59.387Z,35.40
2018-07-14T09:27:27.854Z,35.10
2018-07-14T09:29:57.672Z,35.40
2018-07-14T09:32:26.463Z,35.50
2018-07-14T09:34:54.880Z,34.70
2018-07-14T09:37:23.628Z,33.70
2018-07-14T09:39:52.367Z,32.60
2018-07-14T09:42:21.020Z,31.50
2018-07-14T09:44:49.653Z,30.70
2018-07-14T09:47:18.149Z,30.20
2018-07-14T09:49:47.738Z,30.10
2018-07-14T09:52:16.608Z,30.30
2018-07-14T09:54:45.262Z,30.10
2018-07-14T09:57:14.178Z,29.90
2018-07-14T09:59:42.843Z,30.30
2018-07-14T10:02:11.647Z,30.60
2018-07-14T10:07:08.702Z,30.90
2018-07-14T10:09:37.846Z,31.70
2018-07-14T10:12:06.448Z,32.30
2018-07-14T10:14:34.947Z,32.90
2018-07-14T10:17:04.237Z,33.80
2018-07-14T10:19:32.711Z,33.90
2018-07-14T10:22:01.272Z,34.20
2018-07-14T10:24:30.101Z,34.40
2018-07-14T10:26:59.031Z,34.30
2018-07-14T10:29:27.718Z,34.60
2018-07-14T10:31:56.394Z,34.60
2018-07-14T10:34:25.206Z,34.80
2018-07-14T10:36:53.838Z,34.30
2018-07-14T10:39:22.436Z,34.20
2018-07-14T10:41:51.489Z,34.30
2018-07-14T10:44:19.918Z,34.00
2018-07-14T10:46:49.167Z,33.30
2018-07-14T10:49:17.553Z,32.80
2018-07-14T10:51:46.598Z,32.60
2018-07-14T10:54:15.076Z,32.40
2018-07-14T10:56:44.313Z,31.40
2018-07-14T10:59:13.004Z,30.70
2018-07-14T11:01:42.615Z,29.70
2018-07-14T11:04:11.054Z,29.20
2018-07-14T11:06:40.599Z,28.80
2018-07-14T11:09:10.635Z,28.60
2018-07-14T11:11:39.750Z,28.30
2018-07-14T11:14:08.350Z,28.30
2018-07-14T11:16:37.045Z,28.20
2018-07-14T11:19:08.978Z,28.00
2018-07-14T11:21:37.454Z,27.90
2018-07-14T11:24:06.364Z,27.60
2018-07-14T11:26:35.487Z,27.30
2018-07-14T11:29:04.348Z,27.10
2018-07-14T11:31:33.335Z,27.00
2018-07-14T11:34:02.219Z,27.00
2018-07-14T11:36:30.913Z,26.80
2018-07-14T11:39:00.024Z,26.60
2018-07-14T11:41:28.784Z,26.60
2018-07-14T11:43:57.822Z,26.60
2018-07-14T11:46:26.514Z,27.20
2018-07-14T11:48:55.213Z,27.80
2018-07-14T11:51:25.009Z,28.40
2018-07-14T11:53:53.651Z,28.50
2018-07-14T11:56:23.394Z,28.30
2018-07-14T11:58:51.816Z,28.10
2018-07-14T12:01:20.331Z,27.90
2018-07-14T12:03:48.875Z,27.30
2018-07-14T12:06:17.299Z,26.50
2018-07-14T12:08:45.848Z,25.20
2018-07-14T12:11:14.655Z,24.30
2018-07-14T12:13:43.041Z,23.90
2018-07-14T12:16:11.617Z,24.20
2018-07-14T12:18:40.402Z,24.00
2018-07-14T12:21:10.968Z,23.80
2018-07-14T12:23:39.628Z,23.70
2018-07-14T12:26:08.408Z,23.70
2018-07-14T12:28:37.337Z,23.70
2018-07-14T12:31:06.027Z,23.80
2018-07-14T12:33:35.318Z,23.80
2018-07-14T12:36:04.017Z,23.70
2018-07-14T12:38:32.529Z,23.50
2018-07-14T12:41:01.672Z,23.50
2018-07-14T12:43:30.300Z,23.50
2018-07-14T12:45:58.832Z,23.50
2018-07-14T12:48:27.269Z,23.40
2018-07-14T12:50:55.692Z,23.40
2018-07-14T12:53:24.093Z,23.50
2018-07-14T12:55:52.755Z,23.50
2018-07-14T12:58:22.650Z,23.60
2018-07-14T13:00:51.717Z,23.50
2018-07-14T13:03:20.375Z,23.60
2018-07-14T13:05:49.471Z,23.90
2018-07-14T13:08:17.948Z,24.50
2018-07-14T13:10:46.996Z,25.00
2018-07-14T13:13:15.473Z,25.60
2018-07-14T13:15:44.525Z,25.90
2018-07-14T13:18:13.308Z,26.10
2018-07-14T13:20:42.077Z,26.40
2018-07-14T13:23:11.501Z,26.30
2018-07-14T13:25:39.968Z,26.50
2018-07-14T13:28:08.738Z,26.50
2018-07-14T13:30:37.268Z,26.40
2018-07-14T13:33:05.882Z,26.40
2018-07-14T13:35:35.329Z,26.40
2018-07-14T13:38:04.717Z,26.40
2018-07-14T13:40:33.235Z,26.50
2018-07-14T13:43:01.700Z,26.70
2018-07-14T13:45:30.381Z,26.70
2018-07-14T13:47:59.255Z,26.60
2018-07-14T13:50:28.696Z,26.70
2018-07-14T13:52:57.284Z,26.80
2018-07-14T13:55:26.359Z,27.00
2018-07-14T13:57:55.034Z,27.00
2018-07-14T14:00:24.871Z,27.00
2018-07-14T14:03:05.034Z,27.00
2018-07-14T14:05:34.847Z,27.20
2018-07-14T14:08:05.373Z,27.30
2018-07-14T14:10:36.077Z,27.20
2018-07-14T14:13:07.643Z,27.20
2018-07-14T14:15:37.637Z,27.20
2018-07-14T14:20:35.066Z,27.40
2018-07-14T14:23:03.578Z,27.40
2018-07-14T14:25:32.282Z,27.30
2018-07-14T14:28:00.749Z,27.40
2018-07-14T14:30:29.552Z,27.30
2018-07-14T14:32:58.064Z,27.40
2018-07-14T14:35:27.064Z,27.30
2018-07-14T14:37:55.596Z,27.30
2018-07-14T14:40:24.200Z,27.30
2018-07-14T14:45:21.180Z,27.10
2018-07-14T14:47:49.638Z,27.10
2018-07-14T14:50:18.333Z,27.10
2018-07-14T14:52:47.352Z,27.00
2018-07-14T14:55:16.090Z,26.90
2018-07-14T15:00:14.592Z,26.60
2018-07-14T15:02:43.189Z,26.50
2018-07-14T15:05:11.855Z,26.20
2018-07-14T15:07:40.251Z,26.10
2018-07-14T15:10:08.749Z,25.90
2018-07-14T15:12:37.195Z,26.00
2018-07-14T15:15:05.731Z,26.00
2018-07-14T15:17:34.162Z,25.90
2018-07-14T15:20:03.078Z,25.80
2018-07-14T15:22:32.997Z,25.60
2018-07-14T15:25:02.362Z,25.50
2018-07-14T15:27:30.793Z,25.50
2018-07-14T15:29:59.678Z,25.50
2018-07-14T15:32:29.139Z,25.60
2018-07-14T15:34:57.728Z,25.60
2018-07-14T15:37:26.388Z,25.50
2018-07-14T15:39:55.184Z,25.30
2018-07-14T15:42:23.820Z,25.20
2018-07-14T15:44:52.557Z,25.10
2018-07-14T15:47:21.501Z,25.20
2018-07-14T15:49:50.042Z,25.40
2018-07-14T15:52:18.468Z,25.60
2018-07-14T15:54:47.967Z,25.80
2018-07-14T15:57:16.905Z,26.10
2018-07-14T15:59:45.384Z,26.30
2018-07-14T16:02:14.506Z,26.30
2018-07-14T16:04:43.802Z,26.40
2018-07-14T16:07:12.398Z,26.10
2018-07-14T16:09:41.108Z,25.90
2018-07-14T16:12:09.769Z,25.70
2018-07-14T16:14:38.619Z,25.50
2018-07-14T16:17:07.030Z,25.30
2018-07-14T16:19:35.770Z,25.10
2018-07-14T16:22:04.473Z,25.10
2018-07-14T16:24:33.101Z,25.00
2018-07-14T16:27:02.300Z,24.90
2018-07-14T16:29:30.874Z,25.10
2018-07-14T16:31:59.586Z,25.10
2018-07-14T16:34:30.489Z,25.10
2018-07-14T16:36:59.254Z,25.10
2018-07-14T16:39:28.388Z,25.00
2018-07-14T16:41:56.801Z,24.90
2018-07-14T16:44:25.484Z,24.80
2018-07-14T16:46:53.928Z,24.70
2018-07-14T16:49:22.628Z,24.50
2018-07-14T16:51:51.253Z,24.40
2018-07-14T16:54:20.275Z,24.30
2018-07-14T16:56:49.129Z,24.20
2018-07-14T16:59:17.702Z,24.10
2018-07-14T17:01:46.499Z,24.00
2018-07-14T17:04:15.959Z,24.00
2018-07-14T17:06:44.723Z,24.10
2018-07-14T17:09:14.578Z,24.10
2018-07-14T17:11:44.312Z,24.10
2018-07-14T17:14:12.894Z,24.10
2018-07-14T17:16:41.705Z,24.10
2018-07-14T17:19:10.397Z,24.10
2018-07-14T17:21:40.408Z,24.00
2018-07-14T17:24:09.832Z,24.00
2018-07-14T17:26:38.272Z,23.90
2018-07-14T17:29:07.261Z,23.70
2018-07-14T17:31:35.906Z,23.60
2018-07-14T17:34:06.411Z,23.60
2018-07-14T17:36:36.011Z,23.60
2018-07-14T17:39:06.247Z,23.50
2018-07-14T17:41:35.063Z,23.50
2018-07-14T17:44:04.081Z,23.50
2018-07-14T17:46:32.978Z,23.50
2018-07-14T17:49:01.806Z,23.50
2018-07-14T17:51:30.473Z,23.50
2018-07-14T17:53:59.020Z,23.50
2018-07-14T17:56:27.690Z,23.50
2018-07-14T18:01:25.510Z,23.50
2018-07-14T18:03:53.926Z,23.50
2018-07-14T18:06:23.168Z,23.50
2018-07-14T18:08:51.792Z,23.50
2018-07-14T18:11:20.710Z,23.50
2018-07-14T18:13:49.169Z,23.40
2018-07-14T18:16:18.434Z,23.30
2018-07-14T18:18:47.261Z,23.30
2018-07-14T18:21:15.859Z,23.20
2018-07-14T18:23:44.868Z,23.10
2018-07-14T18:26:13.325Z,23.00
2018-07-14T18:28:42.052Z,23.00
2018-07-14T18:31:10.722Z,22.80
2018-07-14T18:33:40.006Z,22.80
2018-07-14T18:36:08.781Z,22.60
2018-07-14T18:38:37.694Z,22.50
2018-07-14T18:41:06.474Z,22.30
2018-07-14T18:43:35.118Z,22.20
2018-07-14T18:46:03.926Z,22.00
2018-07-14T18:48:32.705Z,21.90
2018-07-14T18:51:01.412Z,21.80
2018-07-14T18:53:30.639Z,21.70
2018-07-14T18:55:59.500Z,21.50
2018-07-14T18:58:28.185Z,21.40
2018-07-14T19:00:57.283Z,21.30
2018-07-14T19:03:26.245Z,21.20
2018-07-14T19:05:54.955Z,21.10
2018-07-14T19:08:24.236Z,20.90
2018-07-14T19:10:52.864Z,20.80
2018-07-14T19:13:21.429Z,20.60
2018-07-14T19:15:49.943Z,20.50
2018-07-14T19:18:19.810Z,20.40
2018-07-14T19:20:48.417Z,20.30
2018-07-14T19:23:17.197Z,20.20
2018-07-14T19:25:45.731Z,20.10
2018-07-14T19:28:14.319Z,20.10
2018-07-14T19:30:43.295Z,19.90
2018-07-14T19:33:12.185Z,19.80
2018-07-14T19:35:41.181Z,19.80
2018-07-14T19:38:09.881Z,19.70
2018-07-14T19:40:38.313Z,19.60
2018-07-14T19:43:07.153Z,19.60
2018-07-14T19:45:36.517Z,19.50
2018-07-14T19:48:05.602Z,19.40
2018-07-14T19:50:34.474Z,19.30
2018-07-14T19:53:04.761Z,19.30
2018-07-14T19:55:35.665Z,19.20
2018-07-14T19:58:02.015Z,19.20
2018-07-14T20:00:30.713Z,19.10
2018-07-14T20:02:59.993Z,19.10
2018-07-14T20:05:28.433Z,19.00
2018-07-14T20:07:57.317Z,19.00
2018-07-14T20:10:27.081Z,19.00
2018-07-14T20:12:55.727Z,18.90
2018-07-14T20:15:24.657Z,18.90
2018-07-14T20:17:53.567Z,18.80
2018-07-14T20:20:22.822Z,18.80
2018-07-14T20:22:52.008Z,18.70
2018-07-14T20:25:20.507Z,18.60
2018-07-14T20:27:48.945Z,18.60
2018-07-14T20:30:19.133Z,18.50
2018-07-14T20:32:47.665Z,18.40
2018-07-14T20:35:16.637Z,18.30
2018-07-14T20:37:45.361Z,18.30
2018-07-14T20:40:13.995Z,18.30
2018-07-14T20:42:42.675Z,18.20
2018-07-14T20:45:11.351Z,18.10
2018-07-14T20:47:40.079Z,18.10
2018-07-14T20:50:08.875Z,18.10
2018-07-14T20:52:37.750Z,18.00
2018-07-14T20:55:06.313Z,18.00
2018-07-14T20:57:35.155Z,17.90
2018-07-14T21:00:03.746Z,17.90
2018-07-14T21:02:32.796Z,17.80
2018-07-14T21:05:01.790Z,17.80
2018-07-14T21:07:31.860Z,17.70
2018-07-14T21:10:00.936Z,17.70
2018-07-14T21:12:29.742Z,17.70
2018-07-14T21:14:58.398Z,17.60
2018-07-14T21:17:27.977Z,17.60
2018-07-14T21:19:56.596Z,17.50
2018-07-14T21:22:25.014Z,17.40
2018-07-14T21:24:54.392Z,17.40
2018-07-14T21:27:23.392Z,17.30
2018-07-14T21:29:51.891Z,17.30
2018-07-14T21:32:21.009Z,17.30
2018-07-14T21:34:49.945Z,17.20
2018-07-14T21:37:18.339Z,17.20
2018-07-14T21:39:47.206Z,17.10
2018-07-14T21:42:16.182Z,17.10
2018-07-14T21:44:44.717Z,17.10
2018-07-14T21:47:13.427Z,17.00
2018-07-14T21:49:42.763Z,17.00
2018-07-14T21:52:12.684Z,17.00
2018-07-14T21:54:41.400Z,17.00
